sensor_id;sensor_type;location;lat;lon;timestamp;temperature;humidity
15967;DHT22;15175;48.154;11.534;2023-12-20T00:03:13;7.40;99.90
15967;DHT22;15175;48.154;11.534;2023-12-20T00:09:15;7.40;99.90
15967;DHT22;15175;48.154;11.534;2023-12-20T00:15:19;7.40;99.90
15967;DHT22;15175;48.154;11.534;2023-12-20T00:21:22;7.40;99.90
15967;DHT22;15175;48.154;11.534;2023-12-20T00:27:24;7.40;99.90
15967;DHT22;15175;48.154;11.534;2023-12-20T00:33:28;7.40;99.90
15967;DHT22;15175;48.154;11.534;2023-12-20T00:39:30;7.40;99.90
15967;DHT22;15175;48.154;11.534;2023-12-20T00:45:33;7.50;99.90
15967;DHT22;15175;48.154;11.534;2023-12-20T00:51:37;7.50;99.90
15967;DHT22;15175;48.154;11.534;2023-12-20T00:57:39;7.50;99.90
15967;DHT22;15175;48.154;11.534;2023-12-20T01:03:41;7.50;99.90
15967;DHT22;15175;48.154;11.534;2023-12-20T01:09:45;7.60;99.90
15967;DHT22;15175;48.154;11.534;2023-12-20T01:15:47;7.60;99.90
15967;DHT22;15175;48.154;11.534;2023-12-20T01:21:49;7.60;99.90
15967;DHT22;15175;48.154;11.534;2023-12-20T01:27:53;7.60;99.90
15967;DHT22;15175;48.154;11.534;2023-12-20T01:33:55;7.60;99.90
15967;DHT22;15175;48.154;11.534;2023-12-20T01:39:57;7.60;99.90
15967;DHT22;15175;48.154;11.534;2023-12-20T01:46:01;7.60;99.90
15967;DHT22;15175;48.154;11.534;2023-12-20T01:52:04;7.60;99.90
15967;DHT22;15175;48.154;11.534;2023-12-20T01:58:07;7.60;99.90
15967;DHT22;15175;48.154;11.534;2023-12-20T02:04:11;7.60;99.90
15967;DHT22;15175;48.154;11.534;2023-12-20T02:10:13;7.70;99.90
15967;DHT22;15175;48.154;11.534;2023-12-20T02:16:15;7.70;99.90
15967;DHT22;15175;48.154;11.534;2023-12-20T02:22:19;7.70;99.90
15967;DHT22;15175;48.154;11.534;2023-12-20T02:28:21;7.70;99.90
15967;DHT22;15175;48.154;11.534;2023-12-20T02:34:24;7.70;99.90
15967;DHT22;15175;48.154;11.534;2023-12-20T02:40:27;7.80;99.90
15967;DHT22;15175;48.154;11.534;2023-12-20T02:46:30;7.80;99.90
15967;DHT22;15175;48.154;11.534;2023-12-20T02:52:32;7.80;99.90
15967;DHT22;15175;48.154;11.534;2023-12-20T02:58:35;7.90;99.90
15967;DHT22;15175;48.154;11.534;2023-12-20T03:04:37;7.90;99.90
15967;DHT22;15175;48.154;11.534;2023-12-20T03:10:40;7.90;99.90
15967;DHT22;15175;48.154;11.534;2023-12-20T03:16:47;7.90;99.90
15967;DHT22;15175;48.154;11.534;2023-12-20T03:22:49;7.90;99.90
15967;DHT22;15175;48.154;11.534;2023-12-20T03:28:51;8.00;99.90
15967;DHT22;15175;48.154;11.534;2023-12-20T03:34:54;8.00;99.90
15967;DHT22;15175;48.154;11.534;2023-12-20T03:40:57;8.00;99.90
15967;DHT22;15175;48.154;11.534;2023-12-20T03:46:59;8.00;99.90
15967;DHT22;15175;48.154;11.534;2023-12-20T03:53:02;8.00;99.90
15967;DHT22;15175;48.154;11.534;2023-12-20T03:59:05;7.90;99.90
15967;DHT22;15175;48.154;11.534;2023-12-20T04:05:08;7.90;99.90
15967;DHT22;15175;48.154;11.534;2023-12-20T04:11:12;7.80;99.90
15967;DHT22;15175;48.154;11.534;2023-12-20T04:17:15;7.80;99.90
15967;DHT22;15175;48.154;11.534;2023-12-20T04:23:17;7.70;99.90
15967;DHT22;15175;48.154;11.534;2023-12-20T04:29:21;7.70;99.90
15967;DHT22;15175;48.154;11.534;2023-12-20T04:35:24;7.60;99.90
15967;DHT22;15175;48.154;11.534;2023-12-20T04:41:26;7.50;99.90
15967;DHT22;15175;48.154;11.534;2023-12-20T04:47:30;7.40;99.90
15967;DHT22;15175;48.154;11.534;2023-12-20T04:53:33;7.40;99.90
15967;DHT22;15175;48.154;11.534;2023-12-20T04:59:35;7.30;99.90
15967;DHT22;15175;48.154;11.534;2023-12-20T05:05:39;7.20;99.90
15967;DHT22;15175;48.154;11.534;2023-12-20T05:11:41;7.20;99.90
15967;DHT22;15175;48.154;11.534;2023-12-20T05:17:43;7.10;99.90
15967;DHT22;15175;48.154;11.534;2023-12-20T05:23:47;6.90;99.90
15967;DHT22;15175;48.154;11.534;2023-12-20T05:29:49;6.90;99.90
15967;DHT22;15175;48.154;11.534;2023-12-20T05:35:52;6.80;99.90
15967;DHT22;15175;48.154;11.534;2023-12-20T05:41:55;6.70;99.90
15967;DHT22;15175;48.154;11.534;2023-12-20T05:47:58;6.60;99.90
15967;DHT22;15175;48.154;11.534;2023-12-20T05:54:00;6.50;99.90
15967;DHT22;15175;48.154;11.534;2023-12-20T06:00:04;6.50;99.90
15967;DHT22;15175;48.154;11.534;2023-12-20T06:06:13;6.40;99.90
15967;DHT22;15175;48.154;11.534;2023-12-20T06:12:15;6.30;99.90
15967;DHT22;15175;48.154;11.534;2023-12-20T06:18:18;6.20;99.90
15967;DHT22;15175;48.154;11.534;2023-12-20T06:24:20;6.10;99.90
15967;DHT22;15175;48.154;11.534;2023-12-20T06:30:23;6.10;99.90
15967;DHT22;15175;48.154;11.534;2023-12-20T06:36:27;5.90;99.90
15967;DHT22;15175;48.154;11.534;2023-12-20T06:42:30;5.90;99.90
15967;DHT22;15175;48.154;11.534;2023-12-20T06:48:32;5.90;99.90
15967;DHT22;15175;48.154;11.534;2023-12-20T06:54:36;5.80;99.90
15967;DHT22;15175;48.154;11.534;2023-12-20T07:00:38;5.70;99.90
15967;DHT22;15175;48.154;11.534;2023-12-20T07:06:41;5.70;99.90
15967;DHT22;15175;48.154;11.534;2023-12-20T07:12:44;5.60;99.90
15967;DHT22;15175;48.154;11.534;2023-12-20T07:18:49;5.60;99.90
15967;DHT22;15175;48.154;11.534;2023-12-20T07:24:51;5.60;99.90
15967;DHT22;15175;48.154;11.534;2023-12-20T07:30:57;5.60;99.90
15967;DHT22;15175;48.154;11.534;2023-12-20T07:36:58;5.50;99.90
15967;DHT22;15175;48.154;11.534;2023-12-20T07:43:01;5.60;99.90
15967;DHT22;15175;48.154;11.534;2023-12-20T07:49:05;5.60;99.90
15967;DHT22;15175;48.154;11.534;2023-12-20T07:55:09;5.60;99.90
15967;DHT22;15175;48.154;11.534;2023-12-20T08:01:12;5.60;99.90
15967;DHT22;15175;48.154;11.534;2023-12-20T08:07:18;5.50;99.90
15967;DHT22;15175;48.154;11.534;2023-12-20T08:13:20;5.50;99.90
15967;DHT22;15175;48.154;11.534;2023-12-20T08:19:25;5.50;99.90
15967;DHT22;15175;48.154;11.534;2023-12-20T08:25:29;5.50;99.90
15967;DHT22;15175;48.154;11.534;2023-12-20T08:31:31;5.50;99.90
15967;DHT22;15175;48.154;11.534;2023-12-20T08:37:33;5.50;99.90
15967;DHT22;15175;48.154;11.534;2023-12-20T08:43:38;5.40;99.90
15967;DHT22;15175;48.154;11.534;2023-12-20T08:49:41;5.40;99.90
15967;DHT22;15175;48.154;11.534;2023-12-20T08:55:44;5.50;99.90
15967;DHT22;15175;48.154;11.534;2023-12-20T09:01:48;5.50;99.90
15967;DHT22;15175;48.154;11.534;2023-12-20T09:07:55;5.50;99.90
15967;DHT22;15175;48.154;11.534;2023-12-20T09:13:57;5.60;99.90
15967;DHT22;15175;48.154;11.534;2023-12-20T09:20:00;5.60;99.90
15967;DHT22;15175;48.154;11.534;2023-12-20T09:26:03;5.60;99.90
15967;DHT22;15175;48.154;11.534;2023-12-20T09:32:06;5.60;99.90
15967;DHT22;15175;48.154;11.534;2023-12-20T09:38:10;5.60;99.90
15967;DHT22;15175;48.154;11.534;2023-12-20T09:44:15;5.70;99.90
15967;DHT22;15175;48.154;11.534;2023-12-20T09:50:20;5.70;99.90
15967;DHT22;15175;48.154;11.534;2023-12-20T09:56:25;5.70;99.90
15967;DHT22;15175;48.154;11.534;2023-12-20T10:02:27;5.70;99.90
15967;DHT22;15175;48.154;11.534;2023-12-20T10:08:30;5.80;99.90
15967;DHT22;15175;48.154;11.534;2023-12-20T10:14:34;5.80;99.90
15967;DHT22;15175;48.154;11.534;2023-12-20T10:20:36;5.80;99.90
15967;DHT22;15175;48.154;11.534;2023-12-20T10:26:39;6.00;99.90
15967;DHT22;15175;48.154;11.534;2023-12-20T10:32:42;6.10;99.90
15967;DHT22;15175;48.154;11.534;2023-12-20T10:38:44;6.20;99.90
15967;DHT22;15175;48.154;11.534;2023-12-20T10:44:47;6.20;99.90
15967;DHT22;15175;48.154;11.534;2023-12-20T10:50:52;6.20;99.90
15967;DHT22;15175;48.154;11.534;2023-12-20T10:56:54;6.20;99.90
15967;DHT22;15175;48.154;11.534;2023-12-20T11:03:00;6.20;99.90
15967;DHT22;15175;48.154;11.534;2023-12-20T11:09:11;6.20;99.90
15967;DHT22;15175;48.154;11.534;2023-12-20T11:15:15;6.20;99.90
15967;DHT22;15175;48.154;11.534;2023-12-20T11:21:17;6.20;99.90
15967;DHT22;15175;48.154;11.534;2023-12-20T11:27:21;6.20;99.90
15967;DHT22;15175;48.154;11.534;2023-12-20T11:33:26;6.20;99.90
15967;DHT22;15175;48.154;11.534;2023-12-20T11:39:31;6.30;99.90
15967;DHT22;15175;48.154;11.534;2023-12-20T11:45:35;6.30;99.90
15967;DHT22;15175;48.154;11.534;2023-12-20T11:51:40;6.40;99.90
15967;DHT22;15175;48.154;11.534;2023-12-20T11:57:43;6.40;99.90
15967;DHT22;15175;48.154;11.534;2023-12-20T12:03:47;6.50;99.90
15967;DHT22;15175;48.154;11.534;2023-12-20T12:09:49;6.50;99.90
15967;DHT22;15175;48.154;11.534;2023-12-20T12:15:51;6.60;99.90
15967;DHT22;15175;48.154;11.534;2023-12-20T12:22:05;6.60;99.90
15967;DHT22;15175;48.154;11.534;2023-12-20T12:28:09;6.60;99.90
15967;DHT22;15175;48.154;11.534;2023-12-20T12:34:12;6.70;99.90
15967;DHT22;15175;48.154;11.534;2023-12-20T12:40:16;6.70;99.90
15967;DHT22;15175;48.154;11.534;2023-12-20T12:46:19;6.70;99.90
15967;DHT22;15175;48.154;11.534;2023-12-20T12:52:21;6.70;99.90
15967;DHT22;15175;48.154;11.534;2023-12-20T12:58:24;6.80;99.90
15967;DHT22;15175;48.154;11.534;2023-12-20T13:04:27;6.80;99.90
15967;DHT22;15175;48.154;11.534;2023-12-20T13:10:29;6.80;99.90
15967;DHT22;15175;48.154;11.534;2023-12-20T13:16:33;6.70;99.90
15967;DHT22;15175;48.154;11.534;2023-12-20T13:22:36;6.50;99.90
15967;DHT22;15175;48.154;11.534;2023-12-20T13:28:38;6.40;99.90
15967;DHT22;15175;48.154;11.534;2023-12-20T13:34:42;6.30;99.90
15967;DHT22;15175;48.154;11.534;2023-12-20T13:40:44;6.20;99.90
15967;DHT22;15175;48.154;11.534;2023-12-20T13:46:46;6.20;99.90
15967;DHT22;15175;48.154;11.534;2023-12-20T13:52:51;6.10;99.90
15967;DHT22;15175;48.154;11.534;2023-12-20T13:58:54;6.10;99.90
15967;DHT22;15175;48.154;11.534;2023-12-20T14:04:56;6.10;99.90
15967;DHT22;15175;48.154;11.534;2023-12-20T14:11:00;6.00;99.90
15967;DHT22;15175;48.154;11.534;2023-12-20T14:17:03;6.00;99.90
15967;DHT22;15175;48.154;11.534;2023-12-20T14:23:07;6.00;99.90
15967;DHT22;15175;48.154;11.534;2023-12-20T14:29:11;6.00;99.90
15967;DHT22;15175;48.154;11.534;2023-12-20T14:35:14;6.00;99.90
15967;DHT22;15175;48.154;11.534;2023-12-20T14:41:16;5.90;99.90
15967;DHT22;15175;48.154;11.534;2023-12-20T14:47:21;5.90;99.90
15967;DHT22;15175;48.154;11.534;2023-12-20T14:53:23;5.90;99.90
15967;DHT22;15175;48.154;11.534;2023-12-20T14:59:26;5.90;99.90
15967;DHT22;15175;48.154;11.534;2023-12-20T15:05:29;5.90;99.90
15967;DHT22;15175;48.154;11.534;2023-12-20T15:11:32;5.80;99.90
15967;DHT22;15175;48.154;11.534;2023-12-20T15:17:35;5.80;99.90
15967;DHT22;15175;48.154;11.534;2023-12-20T15:23:39;5.70;99.90
15967;DHT22;15175;48.154;11.534;2023-12-20T15:29:44;5.70;99.90
15967;DHT22;15175;48.154;11.534;2023-12-20T15:35:46;5.70;99.90
15967;DHT22;15175;48.154;11.534;2023-12-20T15:41:50;5.70;99.90
15967;DHT22;15175;48.154;11.534;2023-12-20T15:47:53;5.70;99.90
15967;DHT22;15175;48.154;11.534;2023-12-20T15:53:55;5.60;99.90
15967;DHT22;15175;48.154;11.534;2023-12-20T15:59:59;5.50;99.90
15967;DHT22;15175;48.154;11.534;2023-12-20T16:06:01;5.40;99.90
15967;DHT22;15175;48.154;11.534;2023-12-20T16:12:05;5.40;99.90
15967;DHT22;15175;48.154;11.534;2023-12-20T16:18:09;5.30;99.90
15967;DHT22;15175;48.154;11.534;2023-12-20T16:24:12;5.20;99.90
15967;DHT22;15175;48.154;11.534;2023-12-20T16:30:14;5.20;99.90
15967;DHT22;15175;48.154;11.534;2023-12-20T16:36:18;5.10;99.90
15967;DHT22;15175;48.154;11.534;2023-12-20T16:42:21;5.10;99.90
15967;DHT22;15175;48.154;11.534;2023-12-20T16:48:23;5.00;99.90
15967;DHT22;15175;48.154;11.534;2023-12-20T16:54:27;5.00;99.90
15967;DHT22;15175;48.154;11.534;2023-12-20T17:00:30;5.00;99.90
15967;DHT22;15175;48.154;11.534;2023-12-20T17:06:32;5.00;99.90
15967;DHT22;15175;48.154;11.534;2023-12-20T17:12:36;5.00;99.90
15967;DHT22;15175;48.154;11.534;2023-12-20T17:18:37;4.90;99.90
15967;DHT22;15175;48.154;11.534;2023-12-20T17:24:40;4.80;99.90
15967;DHT22;15175;48.154;11.534;2023-12-20T17:30:44;4.80;99.90
15967;DHT22;15175;48.154;11.534;2023-12-20T17:36:46;4.80;99.90
15967;DHT22;15175;48.154;11.534;2023-12-20T17:42:48;4.80;99.90
15967;DHT22;15175;48.154;11.534;2023-12-20T17:48:52;4.80;99.90
15967;DHT22;15175;48.154;11.534;2023-12-20T17:54:54;4.90;99.90
15967;DHT22;15175;48.154;11.534;2023-12-20T18:00:56;4.90;99.90
15967;DHT22;15175;48.154;11.534;2023-12-20T18:07:00;5.00;99.90
15967;DHT22;15175;48.154;11.534;2023-12-20T18:13:03;5.00;99.90
15967;DHT22;15175;48.154;11.534;2023-12-20T18:19:05;5.00;99.90
15967;DHT22;15175;48.154;11.534;2023-12-20T18:25:08;5.10;99.90
15967;DHT22;15175;48.154;11.534;2023-12-20T18:31:11;5.10;99.90
15967;DHT22;15175;48.154;11.534;2023-12-20T18:37:13;5.10;99.90
15967;DHT22;15175;48.154;11.534;2023-12-20T18:43:16;5.10;99.90
15967;DHT22;15175;48.154;11.534;2023-12-20T18:49:21;5.10;99.90
15967;DHT22;15175;48.154;11.534;2023-12-20T18:55:23;5.10;99.90
15967;DHT22;15175;48.154;11.534;2023-12-20T19:01:27;5.00;99.90
15967;DHT22;15175;48.154;11.534;2023-12-20T19:07:30;5.00;99.90
15967;DHT22;15175;48.154;11.534;2023-12-20T19:13:32;5.10;99.90
15967;DHT22;15175;48.154;11.534;2023-12-20T19:19:36;5.00;99.90
15967;DHT22;15175;48.154;11.534;2023-12-20T19:25:38;4.90;99.90
15967;DHT22;15175;48.154;11.534;2023-12-20T19:31:40;4.90;99.90
15967;DHT22;15175;48.154;11.534;2023-12-20T19:37:45;4.90;99.90
15967;DHT22;15175;48.154;11.534;2023-12-20T19:43:47;4.90;99.90
15967;DHT22;15175;48.154;11.534;2023-12-20T19:49:50;4.90;99.90
15967;DHT22;15175;48.154;11.534;2023-12-20T19:55:53;4.90;99.90
15967;DHT22;15175;48.154;11.534;2023-12-20T20:01:56;4.90;99.90
15967;DHT22;15175;48.154;11.534;2023-12-20T20:08:00;4.90;99.90
15967;DHT22;15175;48.154;11.534;2023-12-20T20:14:04;5.00;99.90
15967;DHT22;15175;48.154;11.534;2023-12-20T20:20:07;5.10;99.90
15967;DHT22;15175;48.154;11.534;2023-12-20T20:26:10;5.10;99.90
15967;DHT22;15175;48.154;11.534;2023-12-20T20:32:13;5.10;99.90
15967;DHT22;15175;48.154;11.534;2023-12-20T20:38:15;5.10;99.90
15967;DHT22;15175;48.154;11.534;2023-12-20T20:44:18;5.20;99.90
15967;DHT22;15175;48.154;11.534;2023-12-20T20:50:22;5.20;99.90
15967;DHT22;15175;48.154;11.534;2023-12-20T20:56:24;5.20;99.90
15967;DHT22;15175;48.154;11.534;2023-12-20T21:02:26;5.20;99.90
15967;DHT22;15175;48.154;11.534;2023-12-20T21:08:31;5.20;99.90
15967;DHT22;15175;48.154;11.534;2023-12-20T21:14:33;5.20;99.90
15967;DHT22;15175;48.154;11.534;2023-12-20T21:20:35;5.10;99.90
15967;DHT22;15175;48.154;11.534;2023-12-20T21:26:38;5.10;99.90
15967;DHT22;15175;48.154;11.534;2023-12-20T21:32:41;5.10;99.90
15967;DHT22;15175;48.154;11.534;2023-12-20T21:38:45;5.00;99.90
15967;DHT22;15175;48.154;11.534;2023-12-20T21:44:49;5.00;99.90
15967;DHT22;15175;48.154;11.534;2023-12-20T21:50:51;4.90;99.90
15967;DHT22;15175;48.154;11.534;2023-12-20T21:56:53;4.90;99.90
15967;DHT22;15175;48.154;11.534;2023-12-20T22:02:58;4.80;99.90
15967;DHT22;15175;48.154;11.534;2023-12-20T22:09:01;4.80;99.90
15967;DHT22;15175;48.154;11.534;2023-12-20T22:15:04;4.80;99.90
15967;DHT22;15175;48.154;11.534;2023-12-20T22:21:08;4.70;99.90
15967;DHT22;15175;48.154;11.534;2023-12-20T22:27:11;4.70;99.90
15967;DHT22;15175;48.154;11.534;2023-12-20T22:33:13;4.70;99.90
15967;DHT22;15175;48.154;11.534;2023-12-20T22:39:17;4.70;99.90
15967;DHT22;15175;48.154;11.534;2023-12-20T22:45:19;4.70;99.90
15967;DHT22;15175;48.154;11.534;2023-12-20T22:51:21;4.70;99.90
15967;DHT22;15175;48.154;11.534;2023-12-20T22:57:25;4.70;99.90
15967;DHT22;15175;48.154;11.534;2023-12-20T23:03:27;4.70;99.90
15967;DHT22;15175;48.154;11.534;2023-12-20T23:09:29;4.70;99.90
15967;DHT22;15175;48.154;11.534;2023-12-20T23:15:33;4.80;99.90
15967;DHT22;15175;48.154;11.534;2023-12-20T23:21:35;4.80;99.90
15967;DHT22;15175;48.154;11.534;2023-12-20T23:27:37;4.80;99.90
15967;DHT22;15175;48.154;11.534;2023-12-20T23:33:41;4.90;99.90
15967;DHT22;15175;48.154;11.534;2023-12-20T23:39:45;4.90;99.90
15967;DHT22;15175;48.154;11.534;2023-12-20T23:45:48;5.00;99.90
15967;DHT22;15175;48.154;11.534;2023-12-20T23:51:51;5.00;99.90
15967;DHT22;15175;48.154;11.534;2023-12-20T23:57:53;5.00;99.90
